메인 페이지
METAR-TAF:

METAR-TAF

공항 :

코피트나리 공항

쿠타이시, 조지아

위도: 42-10-35N, 경도: 042-28-57E, 고도: 68m

현재 날씨관측

예보는 15분 전, 13:00시(UTC)에 발표되었습니다.
12kt서남서풍과 북서풍을 오가는
온도 27°C
습도 48%
기압 1018 hPa
시정 10km 이상
고도 10000ft 상공 구름 보통

METAR: UGKO 051300Z 27012KT 250V320 9999 SCT100 27/15 Q1018 NOSIG

시각: 17:15 (13:15 UTC)

예보

예보는 2 시간 15분 전, 11:00시(UTC)에 발표되었습니다.
예보 대상 시간: 05일 12시부터 06일 12시까지 (UTC)
서남서10kt
시정 10km 이상
고도 10000ft 상공 구름 보통
전환 중
05일 16시부터 05일 19시까지 (UTC)
시정 10km 이상
1500m 미만 상공 구름 및 적란운 없음
일시적
05일 18시부터 05일 22시까지 (UTC)
여러 방향의 바람 2kt
전환 중
06일 00시부터 06일 03시까지 (UTC)
10kt

TAF: UGKO 051100Z 0512/0612 25010KT 9999 SCT100 TX27/0512Z TN14/0602Z BECMG 0516/0519 CAVOK TEMPO 0518/0522 VRB02KT BECMG 0600/0603 08010KT

4,000개 이상의 공항 관측 자료 및 예보 (METAR 및 TAF 보고).

지도상에서 검색 가능한 기상관측소가 노란 점과 빨간 점으로 표시되어 있습니다.

기상관측소 명을 보려면 표시 위로 마우스를 이동하세요.

날씨 관측과 예보를 보려면 클릭하세요.

지도 변경 : 확대하려면 엑스 표시가 있는 녹색 버튼, 축소하려면 빼기 표시가 있는 녹색 버튼, 다음 페이지의 지도를 보려면 녹색 화살표를 클릭하세요.


METAR-TAF: